Time;durP1;ratioP1;P1;durP2;ratioP2;P2;SDS_P1;SDS_P2;PMS_P1;PMS_P2;Temp;Humidity;BMP_temperature;BMP_pressure;BME280_temperature;BME280_humidity;BME280_pressure;Samples;Min_cycle;Max_cycle;Signal;HPM_P1;HPM_P2
2023/06/16 00:02:06;;;;;;;19.90;17.20;;;;;;;13.70;68.10;100361.35;111081;1265;21970;-81
2023/06/16 00:05:12;;;;;;;21.50;18.00;;;;;;;13.69;68.16;100363.36;111063;1265;21928;-82
2023/06/16 00:07:59;;;;;;;21.40;19.20;;;;;;;13.67;68.04;100361.16;111321;1265;22050;-80
2023/06/16 00:11:00;;;;;;;21.70;19.50;;;;;;;13.64;68.29;100363.60;111084;1267;21939;-81
2023/06/16 00:13:44;;;;;;;21.20;19.00;;;;;;;13.62;68.26;100366.16;110433;1264;22057;-78
2023/06/16 00:16:32;;;;;;;21.30;19.20;;;;;;;13.58;68.19;100366.49;110973;1263;22036;-81
2023/06/16 00:19:27;;;;;;;22.90;20.30;;;;;;;13.54;68.34;100365.84;111146;1263;21960;-81
2023/06/16 00:22:09;;;;;;;20.70;18.50;;;;;;;13.51;68.40;100360.20;110889;1263;22050;-81
2023/06/16 00:25:14;;;;;;;26.90;20.10;;;;;;;13.47;68.50;100349.92;110291;1269;22080;-79
2023/06/16 00:27:45;;;;;;;23.70;21.20;;;;;;;13.43;68.39;100347.86;110227;1269;23761;-81
2023/06/16 00:30:22;;;;;;;22.20;19.80;;;;;;;13.41;68.51;100344.29;110479;1262;21993;-80
2023/06/16 00:33:07;;;;;;;22.70;19.80;;;;;;;13.38;68.62;100336.22;110715;1267;21975;-80
2023/06/16 00:36:03;;;;;;;23.30;20.90;;;;;;;13.35;68.58;100335.33;110739;1266;23724;-78
2023/06/16 00:38:42;;;;;;;24.80;20.10;;;;;;;13.32;68.71;100332.84;110342;1269;21990;-82
2023/06/16 00:41:20;;;;;;;23.20;20.70;;;;;;;13.28;68.84;100329.71;110431;1267;22071;-79
2023/06/16 00:43:55;;;;;;;23.60;19.60;;;;;;;13.25;68.83;100330.38;110903;1261;23610;-80
2023/06/16 00:46:36;;;;;;;22.20;20.00;;;;;;;13.21;68.88;100331.60;111194;1261;21989;-79
2023/06/16 00:49:10;;;;;;;21.70;19.50;;;;;;;13.17;68.87;100331.99;110836;1260;23000;-80
2023/06/16 00:51:49;;;;;;;22.10;19.40;;;;;;;13.12;68.93;100331.02;111005;1257;22324;-81
2023/06/16 00:54:32;;;;;;;22.10;19.90;;;;;;;13.09;69.19;100333.23;110911;1260;21957;-79
2023/06/16 00:57:20;;;;;;;21.70;19.30;;;;;;;13.04;69.27;100334.31;110339;1267;21975;-80
2023/06/16 01:00:02;;;;;;;22.10;20.00;;;;;;;13.01;69.36;100331.19;110446;1267;21993;-79
2023/06/16 01:02:42;;;;;;;25.60;20.80;;;;;;;12.97;69.35;100327.49;109590;1272;22271;-80
2023/06/16 01:05:20;;;;;;;24.00;21.50;;;;;;;12.94;69.37;100324.01;109602;1272;23723;-81
2023/06/16 01:08:21;;;;;;;23.90;21.50;;;;;;;12.93;69.66;100323.00;109402;1267;22109;-80
2023/06/16 01:11:51;;;;;;;28.20;22.40;;;;;;;12.81;69.73;100315.72;109628;1272;23043;-81
2023/06/16 01:14:45;;;;;;;24.60;21.30;;;;;;;12.79;69.73;100321.57;109216;1273;21998;-81
2023/06/16 01:17:21;;;;;;;23.20;20.70;;;;;;;12.78;69.79;100320.59;109357;1277;23078;-80
2023/06/16 01:20:22;;;;;;;24.00;21.70;;;;;;;12.75;69.93;100315.83;109297;1273;21985;-80
2023/06/16 01:23:37;;;;;;;27.10;22.20;;;;;;;12.75;70.06;100318.98;109784;1273;22417;-80
2023/06/16 01:26:45;;;;;;;26.10;23.20;;;;;;;12.70;70.06;100321.46;109367;1278;22002;-80
2023/06/16 01:29:43;;;;;;;20.70;18.60;;;;;;;12.68;70.13;100319.98;109497;1276;21992;-82
2023/06/16 01:32:24;;;;;;;22.80;20.20;;;;;;;12.70;70.15;100321.13;109443;1276;23499;-81
2023/06/16 01:35:09;;;;;;;21.70;19.50;;;;;;;12.71;70.22;100321.77;109587;1276;22041;-82
2023/06/16 01:38:01;;;;;;;23.70;20.50;;;;;;;12.73;70.33;100319.05;109570;1275;22229;-82
2023/06/16 01:40:50;;;;;;;22.30;20.20;;;;;;;12.73;70.17;100313.34;109618;1276;21999;-80
2023/06/16 01:43:32;;;;;;;21.50;19.20;;;;;;;12.73;70.24;100314.50;110231;1265;21976;-84
2023/06/16 01:46:32;;;;;;;22.60;20.20;;;;;;;12.71;70.14;100316.17;110873;1264;22605;-82
2023/06/16 01:49:24;;;;;;;22.40;19.70;;;;;;;12.67;70.10;100314.30;110999;1267;22641;-81
2023/06/16 01:52:11;;;;;;;22.00;19.80;;;;;;;12.63;70.12;100309.93;109795;1269;22040;-83
2023/06/16 01:54:57;;;;;;;21.80;19.60;;;;;;;12.60;70.26;100309.02;110121;1261;23691;-82
2023/06/16 01:57:53;;;;;;;24.50;20.00;;;;;;;12.58;70.55;100309.98;110444;1268;22175;-81
2023/06/16 02:00:57;;;;;;;21.10;18.90;;;;;;;12.58;70.57;100303.88;110240;1268;22008;-81
2023/06/16 02:03:45;;;;;;;21.00;18.90;;;;;;;12.57;70.58;100299.71;109841;1272;22000;-80
2023/06/16 02:06:29;;;;;;;22.00;20.00;;;;;;;12.57;70.53;100295.03;110051;1272;21979;-81
2023/06/16 02:09:09;;;;;;;21.20;19.10;;;;;;;12.57;70.33;100302.54;109441;1273;21990;-78
2023/06/16 02:11:49;;;;;;;20.60;18.50;;;;;;;12.54;70.43;100303.21;109474;1272;22064;-79
2023/06/16 02:14:22;;;;;;;20.30;18.30;;;;;;;12.52;70.31;100301.89;109688;1272;21990;-78
2023/06/16 02:16:56;;;;;;;21.30;19.20;;;;;;;12.49;70.34;100299.07;109274;1275;22092;-79
2023/06/16 02:19:28;;;;;;;22.10;19.80;;;;;;;12.40;70.14;100301.06;108921;1278;22672;-79
2023/06/16 02:22:05;;;;;;;22.90;20.50;;;;;;;12.24;70.09;100301.94;109102;1276;23641;-79
2023/06/16 02:24:37;;;;;;;22.80;19.30;;;;;;;12.08;70.18;100302.29;109069;1281;22008;-79
2023/06/16 02:27:08;;;;;;;22.00;19.80;;;;;;;11.97;70.47;100303.67;108754;1284;23053;-80
2023/06/16 02:29:48;;;;;;;22.80;20.60;;;;;;;11.88;70.60;100303.02;109137;1277;22441;-80
2023/06/16 02:32:33;;;;;;;21.60;19.70;;;;;;;11.81;71.01;100303.48;109074;1281;23654;-81
2023/06/16 02:35:37;;;;;;;22.30;20.10;;;;;;;11.79;71.38;100304.27;109249;1281;23574;-84
2023/06/16 02:38:28;;;;;;;22.10;20.00;;;;;;;11.81;71.65;100299.98;109519;1275;22100;-82
2023/06/16 02:41:05;;;;;;;23.40;21.10;;;;;;;11.85;71.75;100298.23;109585;1272;21977;-81
2023/06/16 02:44:13;;;;;;;21.80;19.70;;;;;;;11.89;71.75;100294.05;109781;1272;24317;-81
2023/06/16 02:46:54;;;;;;;22.20;20.00;;;;;;;11.92;71.59;100301.11;110425;1269;23835;-82
2023/06/16 02:49:42;;;;;;;24.10;20.90;;;;;;;11.88;71.55;100303.35;110398;1263;23803;-81
2023/06/16 02:52:32;;;;;;;22.10;19.90;;;;;;;11.83;71.58;100302.52;110247;1267;22501;-80
2023/06/16 02:55:21;;;;;;;21.90;19.80;;;;;;;11.78;71.47;100297.15;110401;1267;22056;-82
2023/06/16 02:58:07;;;;;;;22.00;19.90;;;;;;;11.74;71.75;100300.97;109912;1270;24341;-81
2023/06/16 03:00:42;;;;;;;21.90;19.40;;;;;;;11.77;71.91;100305.73;109840;1271;23050;-80
2023/06/16 03:03:36;;;;;;;22.90;20.10;;;;;;;11.82;72.24;100309.17;109904;1270;23064;-80
2023/06/16 03:06:39;;;;;;;22.70;20.40;;;;;;;11.87;72.28;100311.77;110472;1260;22009;-79
2023/06/16 03:09:44;;;;;;;21.60;19.50;;;;;;;11.95;72.52;100309.52;110743;1267;23590;-80
2023/06/16 03:12:22;;;;;;;22.60;20.60;;;;;;;12.03;72.40;100309.52;110654;1267;22746;-81
2023/06/16 03:15:18;;;;;;;23.30;21.20;;;;;;;12.09;72.49;100308.73;110060;1266;22753;-80
2023/06/16 03:18:00;;;;;;;26.60;23.20;;;;;;;12.16;72.32;100303.89;110822;1262;21969;-81
2023/06/16 03:20:58;;;;;;;23.60;21.40;;;;;;;12.22;72.40;100305.01;110229;1267;23297;-79
2023/06/16 03:23:38;;;;;;;27.20;24.60;;;;;;;12.29;72.47;100309.75;110359;1267;21973;-80
2023/06/16 03:26:13;;;;;;;31.70;28.10;;;;;;;12.35;72.34;100315.24;109878;1267;23000;-80
2023/06/16 03:29:11;;;;;;;52.70;47.90;;;;;;;12.38;72.00;100316.33;110435;1267;23061;-78
2023/06/16 03:32:05;;;;;;;32.10;29.30;;;;;;;12.30;71.88;100318.58;110409;1260;22021;-78
2023/06/16 03:34:38;;;;;;;34.40;31.00;;;;;;;12.18;71.75;100323.52;110523;1262;23061;-79
2023/06/16 03:37:13;;;;;;;;;;;;;;;12.10;71.87;100328.89;110522;1263;22411;-80
2023/06/16 03:39:49;;;;;;;27.50;24.80;;;;;;;11.94;72.12;100330.46;109828;1268;22397;-80
2023/06/16 03:42:38;;;;;;;27.60;24.20;;;;;;;11.86;72.34;100334.97;109714;1272;23643;-81
2023/06/16 03:45:27;;;;;;;31.60;28.20;;;;;;;11.83;72.70;100336.52;109856;1272;22465;-81
2023/06/16 03:48:14;;;;;;;37.20;31.40;;;;;;;11.86;73.12;100333.26;109585;1275;22973;-80
2023/06/16 03:50:55;;;;;;;40.00;30.00;;;;;;;11.94;73.47;100334.69;109537;1268;23727;-79
2023/06/16 03:53:49;;;;;;;44.30;32.30;;;;;;;12.00;73.38;100335.98;109632;1273;23618;-81
2023/06/16 03:56:32;;;;;;;42.30;31.90;;;;;;;12.06;73.59;100333.42;109572;1270;22459;-79
2023/06/16 03:59:12;;;;;;;36.30;27.10;;;;;;;12.13;73.87;100336.46;109407;1270;21979;-80
2023/06/16 04:01:51;;;;;;;31.20;27.30;;;;;;;12.19;73.92;100333.05;109860;1269;21972;-80
2023/06/16 04:04:30;;;;;;;33.20;27.80;;;;;;;12.24;73.97;100328.65;108037;1265;2863101;-78
2023/06/16 04:07:14;;;;;;;26.80;23.80;;;;;;;12.27;74.12;100324.83;110672;1261;22511;-79
2023/06/16 04:09:52;;;;;;;30.10;25.50;;;;;;;12.40;74.41;100328.80;110777;1261;21983;-79
2023/06/16 04:12:34;;;;;;;32.70;26.80;;;;;;;12.58;74.52;100333.03;111161;1257;22480;-78
2023/06/16 04:15:11;;;;;;;28.20;25.10;;;;;;;12.75;74.56;100335.92;110884;1257;22728;-78
2023/06/16 04:17:46;;;;;;;29.90;24.30;;;;;;;12.95;74.68;100338.08;110882;1257;24373;-80
2023/06/16 04:20:20;;;;;;;23.90;21.50;;;;;;;13.15;74.56;100334.00;110772;1260;22884;-78
2023/06/16 04:23:07;;;;;;;27.80;23.80;;;;;;;13.34;74.36;100339.88;110718;1260;22006;-79
2023/06/16 04:25:41;;;;;;;25.20;22.70;;;;;;;13.52;74.11;100337.06;110791;1260;23638;-81
2023/06/16 04:28:14;;;;;;;23.90;21.40;;;;;;;13.72;73.97;100332.95;110396;1264;21959;-83
2023/06/16 04:30:52;;;;;;;27.80;21.80;;;;;;;13.91;73.60;100335.45;110314;1264;23714;-81
2023/06/16 04:33:23;;;;;;;21.60;19.20;;;;;;;14.08;73.26;100335.27;110639;1264;21972;-80
2023/06/16 04:35:55;;;;;;;;;;;;;;;14.27;72.94;100334.42;110197;1267;22624;-79
2023/06/16 04:38:35;;;;;;;23.50;19.50;;;;;;;14.41;72.94;100335.96;110158;1266;24339;-80
2023/06/16 04:41:09;;;;;;;24.70;21.70;;;;;;;14.63;72.61;100333.59;110609;1266;23937;-79
2023/06/16 04:43:44;;;;;;;24.00;20.00;;;;;;;14.88;72.32;100333.08;110359;1266;23722;-80
2023/06/16 04:46:23;;;;;;;22.90;20.20;;;;;;;15.20;72.23;100329.52;110661;1263;21982;-81
2023/06/16 04:49:04;;;;;;;27.90;21.70;;;;;;;15.56;71.68;100330.23;110280;1267;21981;-81
2023/06/16 04:51:38;;;;;;;26.10;21.30;;;;;;;15.93;71.30;100328.42;110110;1257;23107;-80
2023/06/16 04:54:11;;;;;;;22.90;19.60;;;;;;;16.38;70.93;100324.45;109847;1265;21980;-80
2023/06/16 04:56:46;;;;;;;25.50;20.10;;;;;;;16.84;70.29;100318.91;110598;1265;22942;-81
2023/06/16 04:59:31;;;;;;;24.50;20.30;;;;;;;17.34;69.04;100320.23;110388;1265;21985;-80
2023/06/16 05:02:03;;;;;;;23.30;19.60;;;;;;;17.79;67.58;100323.93;110312;1265;22541;-81
2023/06/16 05:04:43;;;;;;;22.40;18.50;;;;;;;18.13;65.71;100325.98;109629;1269;23048;-80
2023/06/16 05:07:16;;;;;;;18.10;16.20;;;;;;;18.42;64.10;100324.64;109632;1268;21980;-80
2023/06/16 05:09:47;;;;;;;18.20;16.00;;;;;;;18.73;63.40;100326.36;109735;1265;22091;-79
2023/06/16 05:12:18;;;;;;;17.20;15.50;;;;;;;19.08;63.26;100323.45;109915;1268;21970;-79
2023/06/16 05:14:47;;;;;;;17.60;15.40;;;;;;;19.51;62.48;100322.56;110002;1268;21979;-80
2023/06/16 05:17:21;;;;;;;17.20;14.80;;;;;;;19.91;61.17;100320.41;109531;1273;23078;-79
2023/06/16 05:20:01;;;;;;;18.30;13.20;;;;;;;20.18;59.31;100323.26;109778;1269;22124;-81
2023/06/16 05:22:34;;;;;;;14.00;12.50;;;;;;;20.45;58.87;100321.86;110397;1265;22012;-78
2023/06/16 05:25:15;;;;;;;14.30;12.90;;;;;;;20.77;57.96;100319.80;110894;1262;22722;-80
2023/06/16 05:28:07;;;;;;;13.00;11.70;;;;;;;21.08;57.44;100320.88;111015;1262;22008;-80
2023/06/16 05:31:02;;;;;;;15.00;12.50;;;;;;;21.26;55.51;100316.52;110936;1262;24316;-80
2023/06/16 05:34:16;;;;;;;13.50;11.10;;;;;;;21.45;55.55;100314.14;111173;1262;21972;-80
2023/06/16 05:37:18;;;;;;;14.70;12.00;;;;;;;21.64;55.02;100314.66;111317;1256;23703;-81
2023/06/16 05:40:14;;;;;;;14.20;12.90;;;;;;;21.92;54.83;100314.70;111386;1256;21958;-80
2023/06/16 05:43:10;;;;;;;12.50;11.30;;;;;;;22.27;54.12;100315.28;111417;1256;23222;-81
2023/06/16 05:46:03;;;;;;;12.90;11.50;;;;;;;22.55;53.21;100314.61;111543;1256;21999;-82
2023/06/16 05:49:01;;;;;;;11.60;10.50;;;;;;;22.70;52.00;100314.67;111547;1256;22150;-81
2023/06/16 05:52:03;;;;;;;12.70;11.00;;;;;;;22.90;52.43;100314.14;111459;1256;22810;-83
2023/06/16 05:54:38;;;;;;;12.20;9.20;;;;;;;23.16;51.50;100313.40;111327;1256;21932;-82
2023/06/16 05:57:28;;;;;;;10.60;9.50;;;;;;;23.32;50.57;100314.05;111496;1256;23050;-82
2023/06/16 06:00:17;;;;;;;10.70;9.70;;;;;;;23.51;50.53;100317.14;111516;1257;21969;-82
2023/06/16 06:03:02;;;;;;;;;;;;;;;23.77;49.92;100316.69;111316;1256;21986;-82
2023/06/16 06:05:47;;;;;;;13.10;10.00;;;;;;;23.82;49.07;100317.27;111234;1261;22897;-83
2023/06/16 06:08:29;;;;;;;10.70;9.40;;;;;;;24.05;48.79;100316.02;111163;1262;22119;-83
2023/06/16 06:11:12;;;;;;;13.40;11.00;;;;;;;24.23;47.74;100313.73;111023;1257;23071;-82
2023/06/16 06:13:49;;;;;;;12.60;9.00;;;;;;;24.45;47.77;100309.17;110994;1259;23583;-86
2023/06/16 06:16:35;;;;;;;12.60;11.00;;;;;;;24.66;47.01;100309.45;111010;1261;22147;-83
2023/06/16 06:19:40;;;;;;;;;;;;;;;;;;;;;
2023/06/16 06:22:32;;;;;;;17.90;10.30;;;;;;;25.24;46.01;100307.42;110992;1261;21970;-81
2023/06/16 06:25:13;;;;;;;9.80;8.60;;;;;;;25.46;45.58;100307.59;111087;1247;23022;-82
2023/06/16 06:27:44;;;;;;;10.40;8.60;;;;;;;25.68;44.88;100309.98;111235;1256;21987;-81
2023/06/16 06:30:31;;;;;;;12.10;9.70;;;;;;;25.82;43.45;100308.66;111276;1256;23732;-82
2023/06/16 06:33:11;;;;;;;10.70;9.30;;;;;;;25.83;43.65;100308.84;111318;1256;22112;-81
2023/06/16 06:35:49;;;;;;;8.30;7.50;;;;;;;26.00;43.64;100305.59;111465;1256;21982;-83
2023/06/16 06:38:30;;;;;;;9.90;8.40;;;;;;;26.23;43.09;100308.73;111654;1257;21993;-83
2023/06/16 06:41:33;;;;;;;10.20;8.10;;;;;;;26.34;42.18;100308.02;111356;1256;24387;-82
2023/06/16 06:44:40;;;;;;;11.00;7.90;;;;;;;26.36;42.27;100310.94;111065;1262;22003;-81
2023/06/16 06:48:19;;;;;;;;;;;;;;;;;;;;;
2023/06/16 06:51:25;;;;;;;9.10;7.30;;;;;;;26.88;41.70;100316.23;109706;1274;23682;-82
2023/06/16 06:54:56;;;;;;;8.50;7.40;;;;;;;27.13;40.52;100322.25;109731;1275;22019;-81
2023/06/16 06:57:53;;;;;;;9.80;6.80;;;;;;;27.34;39.73;100322.88;109603;1268;21989;-82
2023/06/16 07:00:58;;;;;;;7.20;6.20;;;;;;;27.58;39.20;100319.91;109689;1271;22090;-81
2023/06/16 07:04:16;;;;;;;5.90;5.40;;;;;;;27.74;38.78;100318.15;110175;1268;21956;-81
2023/06/16 07:07:13;;;;;;;8.40;6.60;;;;;;;27.89;38.03;100319.73;110839;1265;21981;-82
2023/06/16 07:10:10;;;;;;;11.20;7.00;;;;;;;27.95;38.10;100320.23;110049;1270;21937;-82
2023/06/16 07:13:06;;;;;;;9.10;6.40;;;;;;;28.21;37.95;100315.92;109461;1270;23821;-83
2023/06/16 07:16:23;;;;;;;8.20;6.10;;;;;;;28.34;37.79;100311.58;109598;1276;22169;-81
2023/06/16 07:19:27;;;;;;;8.20;5.50;;;;;;;28.60;37.03;100312.24;109504;1276;21993;-84
2023/06/16 07:22:48;;;;;;;9.10;6.50;;;;;;;28.77;35.94;100308.98;109654;1276;22002;-80
2023/06/16 07:25:20;;;;;;;11.60;6.20;;;;;;;28.76;35.66;100303.83;109331;1276;22754;-83
2023/06/16 07:27:50;;;;;;;9.70;6.20;;;;;;;28.71;35.24;100302.09;109810;1263;22895;-80
2023/06/16 07:30:35;;;;;;;10.20;6.40;;;;;;;28.78;35.96;100301.44;110613;1261;23020;-81
2023/06/16 07:33:23;;;;;;;9.10;6.50;;;;;;;28.98;36.32;100301.09;111232;1257;21941;-81
2023/06/16 07:36:32;;;;;;;6.20;5.10;;;;;;;29.13;35.66;100299.66;111394;1261;22330;-83
2023/06/16 07:39:22;;;;;;;6.10;5.30;;;;;;;28.99;34.28;100297.39;111363;1261;22824;-82
2023/06/16 07:42:16;;;;;;;5.10;4.20;;;;;;;28.44;34.37;100294.21;111193;1261;21977;-82
2023/06/16 07:45:17;;;;;;;8.30;6.60;;;;;;;28.30;35.38;100293.27;111357;1256;22018;-82
2023/06/16 07:48:16;;;;;;;7.40;4.90;;;;;;;28.35;35.52;100292.18;111388;1257;21988;-82
2023/06/16 07:51:43;;;;;;;5.80;5.10;;;;;;;28.49;35.21;100292.48;111382;1257;22007;-81
2023/06/16 07:54:45;;;;;;;6.30;5.20;;;;;;;28.02;34.35;100293.94;111397;1257;22004;-81
2023/06/16 07:58:24;;;;;;;11.10;5.40;;;;;;;27.54;35.62;100296.19;111323;1257;21973;-82
2023/06/16 08:01:11;;;;;;;5.40;4.80;;;;;;;27.50;36.17;100298.67;110879;1260;21978;-81
2023/06/16 08:04:07;;;;;;;5.50;4.40;;;;;;;27.58;36.43;100299.50;110522;1266;22541;-81
2023/06/16 08:06:50;;;;;;;6.90;4.80;;;;;;;27.76;35.79;100293.80;109907;1270;23660;-84
2023/06/16 08:09:32;;;;;;;7.00;4.60;;;;;;;27.55;34.88;100289.36;109919;1270;23711;-82
2023/06/16 08:12:16;;;;;;;5.30;4.40;;;;;;;27.30;35.70;100290.59;110033;1270;21975;-84
2023/06/16 08:14:50;;;;;;;;;;;;;;;27.41;36.23;100289.01;109607;1275;22034;-83
2023/06/16 08:18:06;;;;;;;7.30;4.10;;;;;;;27.54;35.48;100291.08;109558;1276;23599;-81
2023/06/16 08:21:04;;;;;;;5.10;4.10;;;;;;;27.46;35.04;100291.35;109346;1274;21953;-82
2023/06/16 08:23:55;;;;;;;;;;;;;;;27.45;35.40;100286.25;109565;1274;21946;-83
2023/06/16 08:26:40;;;;;;;5.80;3.60;;;;;;;27.49;35.98;100282.77;109690;1274;21983;-83
2023/06/16 08:29:19;;;;;;;8.20;4.20;;;;;;;27.78;36.04;100280.63;109023;1277;21980;-83
2023/06/16 08:32:17;;;;;;;5.80;4.60;;;;;;;28.14;36.13;100280.63;109261;1274;23086;-83
2023/06/16 08:35:17;;;;;;;14.10;5.00;;;;;;;28.51;34.71;100281.08;109404;1274;21978;-85
2023/06/16 08:38:07;;;;;;;6.10;4.20;;;;;;;28.85;34.69;100282.31;109459;1274;23059;-84
2023/06/16 08:41:26;;;;;;;5.80;4.00;;;;;;;29.27;33.69;100273.27;109414;1275;22459;-84
2023/06/16 08:44:18;;;;;;;4.70;3.60;;;;;;;29.38;32.75;100277.02;109552;1270;21977;-83
2023/06/16 08:47:05;;;;;;;10.40;4.10;;;;;;;29.22;32.23;100277.50;110004;1253;23045;-82
2023/06/16 08:49:49;;;;;;;;;;;;;;;;;;;;;
2023/06/16 08:52:46;;;;;;;8.00;4.40;;;;;;;28.14;33.07;100275.23;110501;1264;22587;-86
2023/06/16 08:55:55;;;;;;;5.20;4.00;;;;;;;27.90;33.44;100273.95;110656;1263;21967;-83
2023/06/16 08:58:46;;;;;;;4.50;3.60;;;;;;;27.43;33.40;100276.30;110489;1261;23700;-83
2023/06/16 09:02:09;;;;;;;6.10;4.10;;;;;;;27.19;34.41;100278.54;111019;1261;21987;-83
2023/06/16 09:05:08;;;;;;;4.50;3.00;;;;;;;27.44;34.13;100276.16;110944;1261;21952;-83
2023/06/16 09:08:12;;;;;;;6.60;3.60;;;;;;;27.35;33.18;100276.64;110581;1265;22964;-83
2023/06/16 09:11:13;;;;;;;5.30;4.00;;;;;;;27.00;33.39;100276.69;109973;1270;21979;-83
2023/06/16 09:13:54;;;;;;;4.60;4.00;;;;;;;26.69;34.03;100274.64;109888;1265;21992;-83
2023/06/16 09:16:39;;;;;;;6.10;3.70;;;;;;;26.43;34.25;100276.02;109917;1265;21967;-83
2023/06/16 09:19:36;;;;;;;4.40;3.40;;;;;;;26.14;34.60;100277.93;110233;1265;21966;-84
2023/06/16 09:22:29;;;;;;;4.60;3.40;;;;;;;25.92;35.01;100273.12;110150;1259;22854;-83
2023/06/16 09:25:14;;;;;;;6.50;4.20;;;;;;;25.69;35.37;100270.83;109812;1269;21939;-83
2023/06/16 09:28:10;;;;;;;5.10;3.90;;;;;;;25.46;35.57;100270.17;109819;1262;22725;-84
2023/06/16 09:31:07;;;;;;;8.40;4.40;;;;;;;25.26;35.99;100269.46;110464;1265;22696;-82
2023/06/16 09:33:50;;;;;;;6.90;4.50;;;;;;;25.17;36.43;100266.30;110253;1265;21992;-83
2023/06/16 09:36:41;;;;;;;4.30;3.60;;;;;;;25.02;36.57;100264.92;110081;1265;24425;-84
2023/06/16 09:39:35;;;;;;;6.00;3.80;;;;;;;24.88;36.67;100267.59;109907;1265;22098;-82
2023/06/16 09:42:33;;;;;;;11.90;4.70;;;;;;;24.77;36.46;100267.72;109605;1270;23045;-82
2023/06/16 09:45:35;;;;;;;8.20;4.20;;;;;;;24.66;36.51;100262.25;109838;1270;22058;-82
2023/06/16 09:48:34;;;;;;;6.30;3.50;;;;;;;24.55;36.84;100255.16;109906;1270;24940;-84
2023/06/16 09:51:28;;;;;;;8.10;4.60;;;;;;;24.46;37.05;100252.08;109731;1270;21999;-83
2023/06/16 09:54:13;;;;;;;8.10;4.30;;;;;;;24.43;37.41;100252.63;109811;1269;21978;-83
2023/06/16 09:57:10;;;;;;;;;;;;;;;;;;;;;
2023/06/16 10:00:13;;;;;;;4.60;3.80;;;;;;;24.64;37.84;100249.11;110744;1257;21923;-85
2023/06/16 10:02:55;;;;;;;5.50;3.60;;;;;;;24.82;37.51;100248.45;111195;1256;23603;-84
2023/06/16 10:05:32;;;;;;;10.60;4.50;;;;;;;25.16;37.08;100246.80;111550;1255;22067;-88
2023/06/16 10:08:19;;;;;;;4.80;3.70;;;;;;;25.51;36.39;100244.00;111401;1255;23615;-84
2023/06/16 10:11:04;;;;;;;8.30;4.10;;;;;;;25.67;35.43;100242.69;110838;1259;21976;-81
2023/06/16 10:14:04;;;;;;;;;;;;;;;;;;;;;
2023/06/16 10:17:13;;;;;;;3.80;3.10;;;;;;;25.54;34.80;100239.55;110879;1260;22038;-79
2023/06/16 10:20:16;;;;;;;4.80;3.40;;;;;;;25.65;34.95;100235.42;111096;1260;22010;-79
2023/06/16 10:22:55;;;;;;;8.90;4.00;;;;;;;25.82;34.63;100235.98;110563;1265;22329;-80
2023/06/16 10:25:44;;;;;;;3.90;3.50;;;;;;;25.91;34.45;100236.32;109955;1264;22405;-79
2023/06/16 10:28:31;;;;;;;4.30;3.40;;;;;;;25.96;34.56;100232.92;110107;1263;23052;-80
2023/06/16 10:31:15;;;;;;;6.40;3.40;;;;;;;26.26;34.58;100229.59;110833;1263;22035;-80
2023/06/16 10:34:30;;;;;;;4.40;3.40;;;;;;;26.61;33.76;100226.15;111051;1261;21983;-80
2023/06/16 10:37:36;;;;;;;6.20;3.30;;;;;;;26.86;33.06;100228.27;110340;1266;22685;-80
2023/06/16 10:40:43;;;;;;;7.20;3.90;;;;;;;27.09;33.05;100222.31;110563;1262;22794;-80
2023/06/16 10:43:47;;;;;;;4.20;2.90;;;;;;;27.29;32.57;100222.29;110915;1262;23693;-79
2023/06/16 10:46:24;;;;;;;4.40;3.00;;;;;;;27.29;31.77;100220.89;111094;1262;22649;-80
2023/06/16 10:49:22;;;;;;;5.10;3.00;;;;;;;27.20;31.35;100216.16;110493;1264;21965;-78
2023/06/16 10:52:02;;;;;;;3.90;3.40;;;;;;;26.98;31.18;100214.02;110898;1264;21988;-80
2023/06/16 10:54:55;;;;;;;7.00;3.30;;;;;;;26.66;31.24;100217.02;110844;1261;21967;-84
2023/06/16 10:58:26;;;;;;;7.30;3.40;;;;;;;26.34;31.93;100216.13;110530;1267;21980;-84
2023/06/16 11:01:27;;;;;;;7.70;3.90;;;;;;;26.12;32.45;100220.27;110604;1267;22003;-83
2023/06/16 11:05:29;;;;;;;8.90;3.60;;;;;;;25.92;33.44;100219.67;110509;1267;22006;-83
2023/06/16 11:08:24;;;;;;;6.40;3.50;;;;;;;25.65;34.18;100222.80;109911;1271;21972;-83
2023/06/16 11:11:23;;;;;;;5.50;3.90;;;;;;;25.47;34.49;100220.72;109583;1273;22385;-86
2023/06/16 11:14:14;;;;;;;5.20;4.10;;;;;;;25.32;34.75;100216.05;109167;1276;21986;-85
2023/06/16 11:17:26;;;;;;;5.10;3.90;;;;;;;25.20;35.29;100219.70;109248;1276;23315;-83
2023/06/16 11:20:26;;;;;;;5.70;3.90;;;;;;;25.21;35.39;100220.34;109389;1275;23609;-84
2023/06/16 11:23:07;;;;;;;22.40;5.80;;;;;;;25.23;35.40;100211.52;109349;1273;21976;-76
2023/06/16 11:28:40;;;;;;;7.40;4.50;;;;;;;25.23;36.07;100210.48;109434;1276;22000;-81
2023/06/16 11:31:23;;;;;;;6.50;3.60;;;;;;;25.16;36.00;100212.84;109258;1275;24458;-81
2023/06/16 11:34:05;;;;;;;6.80;5.20;;;;;;;25.09;36.21;100215.87;109524;1271;23738;-80
2023/06/16 11:36:47;;;;;;;7.60;6.60;;;;;;;25.03;36.43;100216.73;109758;1271;21983;-81
2023/06/16 11:39:40;;;;;;;5.40;4.60;;;;;;;24.99;36.55;100217.59;109775;1271;22077;-81
2023/06/16 11:43:15;;;;;;;4.70;3.70;;;;;;;24.86;36.65;100217.96;110342;1268;22515;-80
2023/06/16 11:46:03;;;;;;;5.30;3.80;;;;;;;24.79;36.71;100214.89;110753;1262;21993;-79
2023/06/16 11:49:12;;;;;;;4.20;3.80;;;;;;;24.79;36.89;100208.91;110770;1262;22011;-88
2023/06/16 11:52:52;;;;;;;;;;;;;;;;;;;;;
2023/06/16 11:56:24;;;;;;;4.60;3.60;;;;;;;24.96;37.07;100206.45;110894;1262;21969;-81
2023/06/16 11:59:08;;;;;;;5.80;4.60;;;;;;;25.10;36.87;100201.29;110242;1262;23055;-83
2023/06/16 12:02:30;;;;;;;7.60;4.50;;;;;;;25.22;36.61;100194.55;110561;1264;23879;-83
2023/06/16 12:06:19;;;;;;;8.20;3.90;;;;;;;25.35;36.54;100197.58;110313;1265;21964;-84
2023/06/16 12:09:17;;;;;;;5.10;3.90;;;;;;;25.46;36.19;100195.73;110437;1265;22310;-82
2023/06/16 12:12:16;;;;;;;3.90;3.40;;;;;;;25.50;35.92;100193.12;110578;1263;23624;-83
2023/06/16 12:15:24;;;;;;;6.40;3.40;;;;;;;25.42;35.65;100192.55;109897;1269;24281;-81
2023/06/16 12:18:22;;;;;;;4.40;3.60;;;;;;;25.29;35.08;100190.09;110112;1265;21987;-82
2023/06/16 12:22:24;;;;;;;;;;;;;;;;;;;;;
2023/06/16 12:36:52;;;;;;;4.90;4.10;;;;;;;26.49;33.90;100180.23;108558;1284;548467;-85
2023/06/16 12:40:31;;;;;;;;;;;;;;;;;;;;;
2023/06/16 12:44:33;;;;;;;;;;;;;;;;;;;;;
2023/06/16 12:47:56;;;;;;;9.80;8.70;;;;;;;26.56;33.74;100170.45;109406;1275;21955;-83
2023/06/16 12:51:06;;;;;;;5.80;4.90;;;;;;;26.55;33.97;100164.46;109299;1276;21980;-82
2023/06/16 12:54:30;;;;;;;;;;;;;;;;;;;;;
2023/06/16 12:57:59;;;;;;;;;;;;;;;;;;;;;
2023/06/16 13:04:23;;;;;;;4.60;3.50;;;;;;;26.50;33.95;100157.13;108685;1287;23765;-83
2023/06/16 13:07:27;;;;;;;7.30;3.50;;;;;;;26.50;33.68;100157.88;109432;1275;22750;-82
2023/06/16 13:10:02;;;;;;;5.50;3.60;;;;;;;26.47;33.30;100155.69;109263;1275;21992;-82
2023/06/16 13:13:18;;;;;;;9.20;4.80;;;;;;;26.35;32.79;100158.18;109472;1275;21993;-82
2023/06/16 13:16:19;;;;;;;8.30;4.20;;;;;;;26.42;33.04;100152.27;109035;1281;22000;-84
2023/06/16 13:19:37;;;;;;;;;;;;;;;;;;;;;
2023/06/16 13:23:00;;;;;;;;;;;;;;;26.51;32.22;100149.50;109327;1276;21977;-81
2023/06/16 13:29:51;;;;;;;;;;;;;;;;;;;;;
2023/06/16 13:32:47;;;;;;;5.40;3.60;;;;;;;26.19;32.27;100142.87;108498;1289;23775;-84
2023/06/16 13:35:48;;;;;;;5.40;4.20;;;;;;;26.23;32.29;100135.27;108524;1286;21918;-83
2023/06/16 13:42:18;;;;;;;3.80;3.20;;;;;;;26.46;31.90;100126.17;109303;1273;22005;-84
2023/06/16 13:46:23;;;;;;;;;;;;;;;;;;;;;
2023/06/16 13:49:32;;;;;;;4.60;3.10;;;;;;;26.14;32.05;100127.89;109713;1273;21980;-84
2023/06/16 13:52:41;;;;;;;5.60;3.70;;;;;;;25.93;31.84;100123.08;109625;1273;22224;-85
2023/06/16 13:56:34;;;;;;;;;;;;;;;;;;;;;